Pagrindinis puslapis
METAR-TAF:

METAR-TAF

Oro uostai :

Rabato oro uostas

Rabatas, Marokas

platuma: 34-03N, ilguma: 006-46W, Aukštis: 84 m

Dabartinis oras

Ataskaita buvo paskelbta 40 minutes, ne 04:30 UTC
Ramus vėjas
Temperatūra 9°C
Drėgmė 87%
Slėgis 1023 hPa
Matomumas: 7000 m

METAR: GMME 230430Z 00000KT 7000 NSC 09/07 Q1023 NOSIG

Laikas: 06:10 (05:10 UTC)

Prognozė

Ataskaita buvo paskelbta 6 valandos ir 10 minutes, ne 23:00 UTC
Prognozė galioja nuo 23 metu 00 UTC su 24 metu 06 UTC
Vėjas 8 kt iš Rytų
Matomumas: 6000 m
Tapsmas
nuo 23 metu 11 UTC su 23 metu 13 UTC
Vėjas 11 kt iš Šiaurės/Šiaurės Vakarų
Matomumas 10 km arba daugiau
nėra debesų žemiau 1500 m ir nėra kamuolinių lietaus debesų

TAF: GMME 222300Z 2300/2406 10008KT 6000 NSC BECMG 2311/2313 33011KT CAVOK

Orai ataskaitas ir orų prognozės (METAR, TAF).

turimą stotys yra geltonos ir raudonos taškus žemėlapyje.

Perkelti pele per norėdami pamatyti stoties vardą.

Tada spustelėkite, norėdami matyti oro stebėjimo ir prognozės.

Norėdami pakeisti žemėlapį: spustelėkite ant žalios mygtukų su juodo kryžiaus žemyn,; žalią mygtuką su brūkšneliu, jei norite nutolinti; arba žalių rodyklių gretimoms žemėlapius.


METAR-TAF: